<?xml version="1.0" encoding="UTF-8" standalone="no" ?>
<gpx xmlns="http://www.topografix.com/GPX/1/1" xmlns:xsi="http://www.w3.org/2001/XMLSchema-instance" xsi:schemaLocation="http://www.topografix.com/GPX/1/1 http://www.topografix.com/GPX/1/1/gpx.xsd" version="1.1" creator="VisuGPX - https://www.visugpx.com">
  <metadata>
    <name>Pignan 26km</name>
  </metadata>
  <trk>
    <name><![CDATA[2014-02-16T20:58:48Z]]></name>
    <extensions>
      <line xmlns="http://www.topografix.com/GPX/gpx_style/0/2">
        <color>0000FF</color>
        <width>4</width>
      </line>
    </extensions>
    <trkseg>
      <trkpt lat="43.57947" lon="3.75412">
        <ele>48.3</ele>
        <time>2022-08-13T05:43:14.000Z</time>
      </trkpt>
      <trkpt lat="43.57906" lon="3.75492">
        <ele>46.6</ele>
        <time>2022-08-13T05:43:24.108Z</time>
      </trkpt>
      <trkpt lat="43.57762" lon="3.75348">
        <ele>43.9</ele>
        <time>2022-08-13T05:43:53.259Z</time>
      </trkpt>
      <trkpt lat="43.57704" lon="3.75226">
        <ele>43.9</ele>
        <time>2022-08-13T05:44:33.419Z</time>
      </trkpt>
      <trkpt lat="43.57693" lon="3.75202">
        <ele>43.9</ele>
        <time>2022-08-13T05:44:40.558Z</time>
      </trkpt>
      <trkpt lat="43.57685" lon="3.7517">
        <ele>43.7</ele>
        <time>2022-08-13T05:44:49.067Z</time>
      </trkpt>
      <trkpt lat="43.57628" lon="3.75041">
        <ele>45</ele>
        <time>2022-08-13T05:45:30.517Z</time>
      </trkpt>
      <trkpt lat="43.57601" lon="3.74968">
        <ele>46</ele>
        <time>2022-08-13T05:45:51.121Z</time>
      </trkpt>
      <trkpt lat="43.57556" lon="3.74811">
        <ele>48</ele>
        <time>2022-08-13T05:46:41.039Z</time>
      </trkpt>
      <trkpt lat="43.5756" lon="3.74789">
        <ele>48.6</ele>
        <time>2022-08-13T05:46:46.740Z</time>
      </trkpt>
      <trkpt lat="43.57828" lon="3.74413">
        <ele>62.3</ele>
        <time>2022-08-13T05:50:21.818Z</time>
      </trkpt>
      <trkpt lat="43.57838" lon="3.74417">
        <ele>63.6</ele>
        <time>2022-08-13T05:50:30.864Z</time>
      </trkpt>
      <trkpt lat="43.57852" lon="3.7444">
        <ele>61.8</ele>
        <time>2022-08-13T05:50:43.726Z</time>
      </trkpt>
      <trkpt lat="43.57902" lon="3.74541">
        <ele>60.8</ele>
        <time>2022-08-13T05:50:56.015Z</time>
      </trkpt>
      <trkpt lat="43.5792" lon="3.74583">
        <ele>59.4</ele>
        <time>2022-08-13T05:51:12.571Z</time>
      </trkpt>
      <trkpt lat="43.57934" lon="3.74605">
        <ele>59.6</ele>
        <time>2022-08-13T05:51:19.932Z</time>
      </trkpt>
      <trkpt lat="43.57937" lon="3.746">
        <ele>60.2</ele>
        <time>2022-08-13T05:51:21.563Z</time>
      </trkpt>
      <trkpt lat="43.57918" lon="3.74529">
        <ele>63</ele>
        <time>2022-08-13T05:52:07.126Z</time>
      </trkpt>
      <trkpt lat="43.57868" lon="3.74424">
        <ele>66.2</ele>
        <time>2022-08-13T05:52:25.402Z</time>
      </trkpt>
      <trkpt lat="43.57868" lon="3.74407">
        <ele>68.5</ele>
        <time>2022-08-13T05:52:41.884Z</time>
      </trkpt>
      <trkpt lat="43.57874" lon="3.74389">
        <ele>70.9</ele>
        <time>2022-08-13T05:52:51.881Z</time>
      </trkpt>
      <trkpt lat="43.57852" lon="3.74397">
        <ele>66.9</ele>
        <time>2022-08-13T05:52:54.763Z</time>
      </trkpt>
      <trkpt lat="43.57793" lon="3.74294">
        <ele>59.4</ele>
        <time>2022-08-13T05:53:06.110Z</time>
      </trkpt>
      <trkpt lat="43.5777" lon="3.74239">
        <ele>56.6</ele>
        <time>2022-08-13T05:53:22.073Z</time>
      </trkpt>
      <trkpt lat="43.57768" lon="3.74155">
        <ele>58.2</ele>
        <time>2022-08-13T05:54:03.248Z</time>
      </trkpt>
      <trkpt lat="43.5779" lon="3.74103">
        <ele>58.5</ele>
        <time>2022-08-13T05:54:29.014Z</time>
      </trkpt>
      <trkpt lat="43.57829" lon="3.74057">
        <ele>59.9</ele>
        <time>2022-08-13T05:55:01.968Z</time>
      </trkpt>
      <trkpt lat="43.57859" lon="3.74035">
        <ele>60.6</ele>
        <time>2022-08-13T05:55:07.460Z</time>
      </trkpt>
      <trkpt lat="43.57888" lon="3.74027">
        <ele>59.1</ele>
        <time>2022-08-13T05:55:17.721Z</time>
      </trkpt>
      <trkpt lat="43.57895" lon="3.73999">
        <ele>61.8</ele>
        <time>2022-08-13T05:55:30.456Z</time>
      </trkpt>
      <trkpt lat="43.57902" lon="3.73966">
        <ele>66</ele>
        <time>2022-08-13T05:55:44.126Z</time>
      </trkpt>
      <trkpt lat="43.57915" lon="3.73944">
        <ele>68.9</ele>
        <time>2022-08-13T05:55:56.493Z</time>
      </trkpt>
      <trkpt lat="43.57896" lon="3.73881">
        <ele>73.7</ele>
        <time>2022-08-13T05:56:52.831Z</time>
      </trkpt>
      <trkpt lat="43.5789" lon="3.73851">
        <ele>77.3</ele>
        <time>2022-08-13T05:57:11.158Z</time>
      </trkpt>
      <trkpt lat="43.57858" lon="3.73813">
        <ele>82.9</ele>
        <time>2022-08-13T05:58:07.651Z</time>
      </trkpt>
      <trkpt lat="43.57836" lon="3.73793">
        <ele>86.3</ele>
        <time>2022-08-13T05:58:21.664Z</time>
      </trkpt>
      <trkpt lat="43.57801" lon="3.73771">
        <ele>90.6</ele>
        <time>2022-08-13T05:58:50.240Z</time>
      </trkpt>
      <trkpt lat="43.57784" lon="3.73743">
        <ele>92.3</ele>
        <time>2022-08-13T05:59:09.529Z</time>
      </trkpt>
      <trkpt lat="43.57752" lon="3.73713">
        <ele>91.2</ele>
        <time>2022-08-13T05:59:22.951Z</time>
      </trkpt>
      <trkpt lat="43.57751" lon="3.73699">
        <ele>91.1</ele>
        <time>2022-08-13T05:59:26.487Z</time>
      </trkpt>
      <trkpt lat="43.57768" lon="3.73627">
        <ele>93.7</ele>
        <time>2022-08-13T06:00:00.825Z</time>
      </trkpt>
      <trkpt lat="43.5778" lon="3.73575">
        <ele>97.2</ele>
        <time>2022-08-13T06:00:36.912Z</time>
      </trkpt>
      <trkpt lat="43.57775" lon="3.73559">
        <ele>96.5</ele>
        <time>2022-08-13T06:00:41.292Z</time>
      </trkpt>
      <trkpt lat="43.57751" lon="3.73525">
        <ele>95.5</ele>
        <time>2022-08-13T06:00:57.557Z</time>
      </trkpt>
      <trkpt lat="43.57741" lon="3.73515">
        <ele>96.7</ele>
        <time>2022-08-13T06:00:59.121Z</time>
      </trkpt>
      <trkpt lat="43.577" lon="3.73495">
        <ele>97.7</ele>
        <time>2022-08-13T06:01:24.828Z</time>
      </trkpt>
      <trkpt lat="43.57679" lon="3.73458">
        <ele>99.9</ele>
        <time>2022-08-13T06:01:36.643Z</time>
      </trkpt>
      <trkpt lat="43.57679" lon="3.73438">
        <ele>101.1</ele>
        <time>2022-08-13T06:01:46.685Z</time>
      </trkpt>
      <trkpt lat="43.57684" lon="3.73414">
        <ele>102.3</ele>
        <time>2022-08-13T06:02:04.880Z</time>
      </trkpt>
      <trkpt lat="43.57695" lon="3.734">
        <ele>103.6</ele>
        <time>2022-08-13T06:02:15.083Z</time>
      </trkpt>
      <trkpt lat="43.57696" lon="3.73384">
        <ele>104.2</ele>
        <time>2022-08-13T06:02:19.120Z</time>
      </trkpt>
      <trkpt lat="43.5768" lon="3.73323">
        <ele>104.7</ele>
        <time>2022-08-13T06:02:45.844Z</time>
      </trkpt>
      <trkpt lat="43.57686" lon="3.73304">
        <ele>105.1</ele>
        <time>2022-08-13T06:02:51.054Z</time>
      </trkpt>
      <trkpt lat="43.57718" lon="3.73253">
        <ele>105.1</ele>
        <time>2022-08-13T06:02:59.783Z</time>
      </trkpt>
      <trkpt lat="43.57777" lon="3.73188">
        <ele>101.8</ele>
        <time>2022-08-13T06:03:12.378Z</time>
      </trkpt>
      <trkpt lat="43.57791" lon="3.73163">
        <ele>101.3</ele>
        <time>2022-08-13T06:03:15.594Z</time>
      </trkpt>
      <trkpt lat="43.57796" lon="3.73135">
        <ele>99.9</ele>
        <time>2022-08-13T06:03:22.843Z</time>
      </trkpt>
      <trkpt lat="43.57792" lon="3.73124">
        <ele>99.5</ele>
        <time>2022-08-13T06:03:25.937Z</time>
      </trkpt>
      <trkpt lat="43.57788" lon="3.73074">
        <ele>97.8</ele>
        <time>2022-08-13T06:03:30.581Z</time>
      </trkpt>
      <trkpt lat="43.57778" lon="3.73043">
        <ele>97.5</ele>
        <time>2022-08-13T06:03:39.110Z</time>
      </trkpt>
      <trkpt lat="43.57758" lon="3.73011">
        <ele>96.8</ele>
        <time>2022-08-13T06:03:42.700Z</time>
      </trkpt>
      <trkpt lat="43.57735" lon="3.72986">
        <ele>96.5</ele>
        <time>2022-08-13T06:03:46.408Z</time>
      </trkpt>
      <trkpt lat="43.57698" lon="3.7293">
        <ele>95.2</ele>
        <time>2022-08-13T06:03:56.478Z</time>
      </trkpt>
      <trkpt lat="43.57663" lon="3.72898">
        <ele>92.7</ele>
        <time>2022-08-13T06:04:01.795Z</time>
      </trkpt>
      <trkpt lat="43.57646" lon="3.72872">
        <ele>90.5</ele>
        <time>2022-08-13T06:04:05.506Z</time>
      </trkpt>
      <trkpt lat="43.5764" lon="3.72841">
        <ele>86.3</ele>
        <time>2022-08-13T06:04:13.572Z</time>
      </trkpt>
      <trkpt lat="43.57625" lon="3.72808">
        <ele>80.3</ele>
        <time>2022-08-13T06:04:17.147Z</time>
      </trkpt>
      <trkpt lat="43.57551" lon="3.72745">
        <ele>75.3</ele>
        <time>2022-08-13T06:04:27.989Z</time>
      </trkpt>
      <trkpt lat="43.57538" lon="3.72727">
        <ele>75.3</ele>
        <time>2022-08-13T06:04:34.378Z</time>
      </trkpt>
      <trkpt lat="43.57522" lon="3.72717">
        <ele>75.3</ele>
        <time>2022-08-13T06:04:40.472Z</time>
      </trkpt>
      <trkpt lat="43.57521" lon="3.72675">
        <ele>76.5</ele>
        <time>2022-08-13T06:04:55.581Z</time>
      </trkpt>
      <trkpt lat="43.57513" lon="3.72634">
        <ele>78</ele>
        <time>2022-08-13T06:05:06.255Z</time>
      </trkpt>
      <trkpt lat="43.57496" lon="3.72577">
        <ele>78.4</ele>
        <time>2022-08-13T06:05:21.750Z</time>
      </trkpt>
      <trkpt lat="43.57478" lon="3.72542">
        <ele>80.9</ele>
        <time>2022-08-13T06:05:48.877Z</time>
      </trkpt>
      <trkpt lat="43.57465" lon="3.72529">
        <ele>81</ele>
        <time>2022-08-13T06:05:54.447Z</time>
      </trkpt>
      <trkpt lat="43.57458" lon="3.72512">
        <ele>82.7</ele>
        <time>2022-08-13T06:06:04.382Z</time>
      </trkpt>
      <trkpt lat="43.57446" lon="3.72503">
        <ele>82.9</ele>
        <time>2022-08-13T06:06:09.121Z</time>
      </trkpt>
      <trkpt lat="43.5743" lon="3.72471">
        <ele>85.1</ele>
        <time>2022-08-13T06:06:23.604Z</time>
      </trkpt>
      <trkpt lat="43.57412" lon="3.72447">
        <ele>86.4</ele>
        <time>2022-08-13T06:06:51.609Z</time>
      </trkpt>
      <trkpt lat="43.57389" lon="3.72403">
        <ele>88.5</ele>
        <time>2022-08-13T06:07:09.392Z</time>
      </trkpt>
      <trkpt lat="43.57376" lon="3.72362">
        <ele>90</ele>
        <time>2022-08-13T06:07:25.072Z</time>
      </trkpt>
      <trkpt lat="43.57338" lon="3.72311">
        <ele>93.5</ele>
        <time>2022-08-13T06:07:53.177Z</time>
      </trkpt>
      <trkpt lat="43.57313" lon="3.7226">
        <ele>94.3</ele>
        <time>2022-08-13T06:08:23.691Z</time>
      </trkpt>
      <trkpt lat="43.57281" lon="3.72193">
        <ele>96</ele>
        <time>2022-08-13T06:08:47.637Z</time>
      </trkpt>
      <trkpt lat="43.57273" lon="3.72184">
        <ele>96.8</ele>
        <time>2022-08-13T06:08:51.218Z</time>
      </trkpt>
      <trkpt lat="43.57262" lon="3.72182">
        <ele>97.9</ele>
        <time>2022-08-13T06:08:55.068Z</time>
      </trkpt>
      <trkpt lat="43.57233" lon="3.72132">
        <ele>100.5</ele>
        <time>2022-08-13T06:09:15.129Z</time>
      </trkpt>
      <trkpt lat="43.57223" lon="3.72122">
        <ele>101</ele>
        <time>2022-08-13T06:09:24.529Z</time>
      </trkpt>
      <trkpt lat="43.57219" lon="3.72098">
        <ele>101.1</ele>
        <time>2022-08-13T06:09:26.780Z</time>
      </trkpt>
      <trkpt lat="43.57199" lon="3.72032">
        <ele>100</ele>
        <time>2022-08-13T06:09:44.765Z</time>
      </trkpt>
      <trkpt lat="43.57196" lon="3.72006">
        <ele>99.3</ele>
        <time>2022-08-13T06:09:51.383Z</time>
      </trkpt>
      <trkpt lat="43.5719" lon="3.71986">
        <ele>98.8</ele>
        <time>2022-08-13T06:09:53.244Z</time>
      </trkpt>
      <trkpt lat="43.57168" lon="3.71981">
        <ele>98</ele>
        <time>2022-08-13T06:10:00.980Z</time>
      </trkpt>
      <trkpt lat="43.5714" lon="3.7194">
        <ele>96.2</ele>
        <time>2022-08-13T06:10:06.151Z</time>
      </trkpt>
      <trkpt lat="43.57098" lon="3.71908">
        <ele>95.4</ele>
        <time>2022-08-13T06:10:14.681Z</time>
      </trkpt>
      <trkpt lat="43.5709" lon="3.71888">
        <ele>95.5</ele>
        <time>2022-08-13T06:10:20.424Z</time>
      </trkpt>
      <trkpt lat="43.57085" lon="3.71842">
        <ele>92.9</ele>
        <time>2022-08-13T06:10:25.858Z</time>
      </trkpt>
      <trkpt lat="43.57074" lon="3.71835">
        <ele>91.4</ele>
        <time>2022-08-13T06:10:27.393Z</time>
      </trkpt>
      <trkpt lat="43.57033" lon="3.71843">
        <ele>87.8</ele>
        <time>2022-08-13T06:10:32.638Z</time>
      </trkpt>
      <trkpt lat="43.5701" lon="3.71838">
        <ele>85.9</ele>
        <time>2022-08-13T06:10:35.587Z</time>
      </trkpt>
      <trkpt lat="43.5699" lon="3.71829">
        <ele>84.5</ele>
        <time>2022-08-13T06:10:38.252Z</time>
      </trkpt>
      <trkpt lat="43.56959" lon="3.71802">
        <ele>83.2</ele>
        <time>2022-08-13T06:10:44.316Z</time>
      </trkpt>
      <trkpt lat="43.56919" lon="3.71743">
        <ele>81.7</ele>
        <time>2022-08-13T06:10:55.200Z</time>
      </trkpt>
      <trkpt lat="43.56903" lon="3.717">
        <ele>83.6</ele>
        <time>2022-08-13T06:11:07.352Z</time>
      </trkpt>
      <trkpt lat="43.56889" lon="3.71676">
        <ele>86.6</ele>
        <time>2022-08-13T06:11:15.098Z</time>
      </trkpt>
      <trkpt lat="43.56855" lon="3.71634">
        <ele>86.3</ele>
        <time>2022-08-13T06:11:23.111Z</time>
      </trkpt>
      <trkpt lat="43.56826" lon="3.71615">
        <ele>79.7</ele>
        <time>2022-08-13T06:11:27.177Z</time>
      </trkpt>
      <trkpt lat="43.56801" lon="3.71609">
        <ele>77.6</ele>
        <time>2022-08-13T06:11:35.982Z</time>
      </trkpt>
      <trkpt lat="43.56791" lon="3.71615">
        <ele>76.9</ele>
        <time>2022-08-13T06:11:39.765Z</time>
      </trkpt>
      <trkpt lat="43.56763" lon="3.7161">
        <ele>75.5</ele>
        <time>2022-08-13T06:11:44.058Z</time>
      </trkpt>
      <trkpt lat="43.56753" lon="3.71621">
        <ele>74.1</ele>
        <time>2022-08-13T06:11:48.495Z</time>
      </trkpt>
      <trkpt lat="43.5672" lon="3.71653">
        <ele>71</ele>
        <time>2022-08-13T06:11:53.604Z</time>
      </trkpt>
      <trkpt lat="43.56695" lon="3.71651">
        <ele>71.1</ele>
        <time>2022-08-13T06:12:07.304Z</time>
      </trkpt>
      <trkpt lat="43.56661" lon="3.71671">
        <ele>71.8</ele>
        <time>2022-08-13T06:12:30.349Z</time>
      </trkpt>
      <trkpt lat="43.56657" lon="3.7166">
        <ele>71.4</ele>
        <time>2022-08-13T06:12:31.478Z</time>
      </trkpt>
      <trkpt lat="43.56637" lon="3.71635">
        <ele>70.8</ele>
        <time>2022-08-13T06:12:40.841Z</time>
      </trkpt>
      <trkpt lat="43.56617" lon="3.716">
        <ele>70.2</ele>
        <time>2022-08-13T06:12:52.048Z</time>
      </trkpt>
      <trkpt lat="43.56572" lon="3.7155">
        <ele>66.9</ele>
        <time>2022-08-13T06:12:59.366Z</time>
      </trkpt>
      <trkpt lat="43.5656" lon="3.7154">
        <ele>66.4</ele>
        <time>2022-08-13T06:13:04.230Z</time>
      </trkpt>
      <trkpt lat="43.5653" lon="3.71521">
        <ele>64.7</ele>
        <time>2022-08-13T06:13:09.518Z</time>
      </trkpt>
      <trkpt lat="43.5648" lon="3.71462">
        <ele>64.1</ele>
        <time>2022-08-13T06:13:17.506Z</time>
      </trkpt>
      <trkpt lat="43.56424" lon="3.71432">
        <ele>64.9</ele>
        <time>2022-08-13T06:13:26.837Z</time>
      </trkpt>
      <trkpt lat="43.56378" lon="3.71399">
        <ele>62.1</ele>
        <time>2022-08-13T06:13:33.404Z</time>
      </trkpt>
      <trkpt lat="43.56331" lon="3.71391">
        <ele>60.1</ele>
        <time>2022-08-13T06:13:40.149Z</time>
      </trkpt>
      <trkpt lat="43.56308" lon="3.714">
        <ele>59.8</ele>
        <time>2022-08-13T06:13:48.444Z</time>
      </trkpt>
      <trkpt lat="43.56266" lon="3.71433">
        <ele>58.4</ele>
        <time>2022-08-13T06:14:15.450Z</time>
      </trkpt>
      <trkpt lat="43.56232" lon="3.71464">
        <ele>55.7</ele>
        <time>2022-08-13T06:14:20.612Z</time>
      </trkpt>
      <trkpt lat="43.56217" lon="3.71492">
        <ele>55.7</ele>
        <time>2022-08-13T06:14:29.367Z</time>
      </trkpt>
      <trkpt lat="43.5621" lon="3.71491">
        <ele>54.6</ele>
        <time>2022-08-13T06:14:30.258Z</time>
      </trkpt>
      <trkpt lat="43.56204" lon="3.71477">
        <ele>52.7</ele>
        <time>2022-08-13T06:14:34.348Z</time>
      </trkpt>
      <trkpt lat="43.5621" lon="3.71459">
        <ele>52</ele>
        <time>2022-08-13T06:14:39.329Z</time>
      </trkpt>
      <trkpt lat="43.56242" lon="3.71399">
        <ele>49.6</ele>
        <time>2022-08-13T06:14:49.193Z</time>
      </trkpt>
      <trkpt lat="43.56264" lon="3.71377">
        <ele>48.7</ele>
        <time>2022-08-13T06:15:03.414Z</time>
      </trkpt>
      <trkpt lat="43.56281" lon="3.7135">
        <ele>45.1</ele>
        <time>2022-08-13T06:15:12.408Z</time>
      </trkpt>
      <trkpt lat="43.56309" lon="3.71345">
        <ele>46.2</ele>
        <time>2022-08-13T06:15:22.204Z</time>
      </trkpt>
      <trkpt lat="43.56326" lon="3.71334">
        <ele>44.1</ele>
        <time>2022-08-13T06:15:28.719Z</time>
      </trkpt>
      <trkpt lat="43.56342" lon="3.71314">
        <ele>45.4</ele>
        <time>2022-08-13T06:15:36.209Z</time>
      </trkpt>
      <trkpt lat="43.56362" lon="3.71305">
        <ele>46.2</ele>
        <time>2022-08-13T06:15:43.508Z</time>
      </trkpt>
      <trkpt lat="43.56402" lon="3.71299">
        <ele>47.5</ele>
        <time>2022-08-13T06:15:57.469Z</time>
      </trkpt>
      <trkpt lat="43.56421" lon="3.71288">
        <ele>49.5</ele>
        <time>2022-08-13T06:16:04.618Z</time>
      </trkpt>
      <trkpt lat="43.56465" lon="3.71288">
        <ele>49.6</ele>
        <time>2022-08-13T06:16:19.885Z</time>
      </trkpt>
      <trkpt lat="43.56483" lon="3.71282">
        <ele>49</ele>
        <time>2022-08-13T06:16:26.311Z</time>
      </trkpt>
      <trkpt lat="43.56521" lon="3.71241">
        <ele>49.3</ele>
        <time>2022-08-13T06:16:46.970Z</time>
      </trkpt>
      <trkpt lat="43.56547" lon="3.71189">
        <ele>50.8</ele>
        <time>2022-08-13T06:17:06.827Z</time>
      </trkpt>
      <trkpt lat="43.56581" lon="3.71143">
        <ele>54.7</ele>
        <time>2022-08-13T06:17:51.996Z</time>
      </trkpt>
      <trkpt lat="43.56615" lon="3.71115">
        <ele>54.9</ele>
        <time>2022-08-13T06:17:57.231Z</time>
      </trkpt>
      <trkpt lat="43.56771" lon="3.70965">
        <ele>59.3</ele>
        <time>2022-08-13T06:19:24.135Z</time>
      </trkpt>
      <trkpt lat="43.56799" lon="3.70934">
        <ele>59.7</ele>
        <time>2022-08-13T06:19:36.590Z</time>
      </trkpt>
      <trkpt lat="43.56881" lon="3.70829">
        <ele>61.5</ele>
        <time>2022-08-13T06:20:46.113Z</time>
      </trkpt>
      <trkpt lat="43.56959" lon="3.7077">
        <ele>63.9</ele>
        <time>2022-08-13T06:20:57.322Z</time>
      </trkpt>
      <trkpt lat="43.57026" lon="3.70695">
        <ele>68.3</ele>
        <time>2022-08-13T06:21:57.351Z</time>
      </trkpt>
      <trkpt lat="43.57078" lon="3.70648">
        <ele>72.1</ele>
        <time>2022-08-13T06:22:51.601Z</time>
      </trkpt>
      <trkpt lat="43.57087" lon="3.70635">
        <ele>73.9</ele>
        <time>2022-08-13T06:22:53.251Z</time>
      </trkpt>
      <trkpt lat="43.57104" lon="3.70586">
        <ele>80.1</ele>
        <time>2022-08-13T06:23:45.931Z</time>
      </trkpt>
      <trkpt lat="43.57111" lon="3.70552">
        <ele>84.8</ele>
        <time>2022-08-13T06:24:20.205Z</time>
      </trkpt>
      <trkpt lat="43.57134" lon="3.70482">
        <ele>95.9</ele>
        <time>2022-08-13T06:25:14.553Z</time>
      </trkpt>
      <trkpt lat="43.57137" lon="3.70463">
        <ele>97.8</ele>
        <time>2022-08-13T06:25:24.463Z</time>
      </trkpt>
      <trkpt lat="43.57132" lon="3.70435">
        <ele>100</ele>
        <time>2022-08-13T06:25:31.713Z</time>
      </trkpt>
      <trkpt lat="43.57131" lon="3.70402">
        <ele>100.3</ele>
        <time>2022-08-13T06:25:45.165Z</time>
      </trkpt>
      <trkpt lat="43.57147" lon="3.7034">
        <ele>101.2</ele>
        <time>2022-08-13T06:26:05.645Z</time>
      </trkpt>
      <trkpt lat="43.57157" lon="3.70317">
        <ele>102</ele>
        <time>2022-08-13T06:26:12.388Z</time>
      </trkpt>
      <trkpt lat="43.57179" lon="3.70277">
        <ele>105.3</ele>
        <time>2022-08-13T06:26:48.738Z</time>
      </trkpt>
      <trkpt lat="43.57207" lon="3.70214">
        <ele>108.9</ele>
        <time>2022-08-13T06:27:22.561Z</time>
      </trkpt>
      <trkpt lat="43.5723" lon="3.70186">
        <ele>110.9</ele>
        <time>2022-08-13T06:27:43.228Z</time>
      </trkpt>
      <trkpt lat="43.57244" lon="3.7018">
        <ele>112.1</ele>
        <time>2022-08-13T06:27:53.327Z</time>
      </trkpt>
      <trkpt lat="43.57263" lon="3.70165">
        <ele>113.5</ele>
        <time>2022-08-13T06:28:06.242Z</time>
      </trkpt>
      <trkpt lat="43.57291" lon="3.70115">
        <ele>113.9</ele>
        <time>2022-08-13T06:28:22.128Z</time>
      </trkpt>
      <trkpt lat="43.57299" lon="3.70109">
        <ele>114</ele>
        <time>2022-08-13T06:28:23.281Z</time>
      </trkpt>
      <trkpt lat="43.57334" lon="3.70095">
        <ele>112</ele>
        <time>2022-08-13T06:28:29.299Z</time>
      </trkpt>
      <trkpt lat="43.57401" lon="3.70054">
        <ele>109.2</ele>
        <time>2022-08-13T06:28:43.518Z</time>
      </trkpt>
      <trkpt lat="43.57442" lon="3.70039">
        <ele>108.3</ele>
        <time>2022-08-13T06:28:50.827Z</time>
      </trkpt>
      <trkpt lat="43.57462" lon="3.70032">
        <ele>108.1</ele>
        <time>2022-08-13T06:28:57.986Z</time>
      </trkpt>
      <trkpt lat="43.57482" lon="3.70036">
        <ele>107.1</ele>
        <time>2022-08-13T06:29:04.998Z</time>
      </trkpt>
      <trkpt lat="43.57524" lon="3.70031">
        <ele>105.8</ele>
        <time>2022-08-13T06:29:19.625Z</time>
      </trkpt>
      <trkpt lat="43.57569" lon="3.70005">
        <ele>104.5</ele>
        <time>2022-08-13T06:29:36.552Z</time>
      </trkpt>
      <trkpt lat="43.57603" lon="3.69979">
        <ele>105</ele>
        <time>2022-08-13T06:30:05.244Z</time>
      </trkpt>
      <trkpt lat="43.57637" lon="3.69968">
        <ele>105.3</ele>
        <time>2022-08-13T06:30:21.670Z</time>
      </trkpt>
      <trkpt lat="43.57687" lon="3.6996">
        <ele>108</ele>
        <time>2022-08-13T06:30:54.258Z</time>
      </trkpt>
      <trkpt lat="43.57757" lon="3.69964">
        <ele>112.5</ele>
        <time>2022-08-13T06:31:38.836Z</time>
      </trkpt>
      <trkpt lat="43.57804" lon="3.69949">
        <ele>115.3</ele>
        <time>2022-08-13T06:31:59.498Z</time>
      </trkpt>
      <trkpt lat="43.57844" lon="3.69948">
        <ele>118.9</ele>
        <time>2022-08-13T06:32:28.522Z</time>
      </trkpt>
      <trkpt lat="43.57871" lon="3.69936">
        <ele>120.9</ele>
        <time>2022-08-13T06:32:43.058Z</time>
      </trkpt>
      <trkpt lat="43.57885" lon="3.69925">
        <ele>121.8</ele>
        <time>2022-08-13T06:32:48.647Z</time>
      </trkpt>
      <trkpt lat="43.57916" lon="3.69914">
        <ele>123.1</ele>
        <time>2022-08-13T06:33:09.797Z</time>
      </trkpt>
      <trkpt lat="43.57933" lon="3.69902">
        <ele>123.5</ele>
        <time>2022-08-13T06:33:12.282Z</time>
      </trkpt>
      <trkpt lat="43.57958" lon="3.69872">
        <ele>122.8</ele>
        <time>2022-08-13T06:33:17.595Z</time>
      </trkpt>
      <trkpt lat="43.57997" lon="3.69797">
        <ele>121.6</ele>
        <time>2022-08-13T06:33:40.800Z</time>
      </trkpt>
      <trkpt lat="43.58014" lon="3.69784">
        <ele>120.2</ele>
        <time>2022-08-13T06:33:43.262Z</time>
      </trkpt>
      <trkpt lat="43.58036" lon="3.69752">
        <ele>119</ele>
        <time>2022-08-13T06:33:54.351Z</time>
      </trkpt>
      <trkpt lat="43.58056" lon="3.69732">
        <ele>118.9</ele>
        <time>2022-08-13T06:34:13.151Z</time>
      </trkpt>
      <trkpt lat="43.58105" lon="3.69706">
        <ele>118.7</ele>
        <time>2022-08-13T06:34:19.716Z</time>
      </trkpt>
      <trkpt lat="43.58135" lon="3.6968">
        <ele>117.6</ele>
        <time>2022-08-13T06:34:36.294Z</time>
      </trkpt>
      <trkpt lat="43.58178" lon="3.69663">
        <ele>116.8</ele>
        <time>2022-08-13T06:34:55.810Z</time>
      </trkpt>
      <trkpt lat="43.58202" lon="3.69642">
        <ele>115.6</ele>
        <time>2022-08-13T06:35:10.360Z</time>
      </trkpt>
      <trkpt lat="43.5822" lon="3.6961">
        <ele>115.6</ele>
        <time>2022-08-13T06:35:25.163Z</time>
      </trkpt>
      <trkpt lat="43.58236" lon="3.69598">
        <ele>116.9</ele>
        <time>2022-08-13T06:35:27.483Z</time>
      </trkpt>
      <trkpt lat="43.58245" lon="3.6961">
        <ele>116.7</ele>
        <time>2022-08-13T06:35:31.824Z</time>
      </trkpt>
      <trkpt lat="43.58252" lon="3.69627">
        <ele>117.2</ele>
        <time>2022-08-13T06:35:50.782Z</time>
      </trkpt>
      <trkpt lat="43.58273" lon="3.69635">
        <ele>118.3</ele>
        <time>2022-08-13T06:36:03.653Z</time>
      </trkpt>
      <trkpt lat="43.58284" lon="3.69646">
        <ele>119</ele>
        <time>2022-08-13T06:36:08.366Z</time>
      </trkpt>
      <trkpt lat="43.58311" lon="3.69713">
        <ele>125</ele>
        <time>2022-08-13T06:36:27.637Z</time>
      </trkpt>
      <trkpt lat="43.58311" lon="3.6973">
        <ele>126</ele>
        <time>2022-08-13T06:36:31.909Z</time>
      </trkpt>
      <trkpt lat="43.58301" lon="3.69748">
        <ele>125.3</ele>
        <time>2022-08-13T06:36:37.611Z</time>
      </trkpt>
      <trkpt lat="43.58266" lon="3.69789">
        <ele>123.3</ele>
        <time>2022-08-13T06:36:44.068Z</time>
      </trkpt>
      <trkpt lat="43.58245" lon="3.69808">
        <ele>122.6</ele>
        <time>2022-08-13T06:36:47.248Z</time>
      </trkpt>
      <trkpt lat="43.58241" lon="3.69821">
        <ele>122.4</ele>
        <time>2022-08-13T06:36:56.281Z</time>
      </trkpt>
      <trkpt lat="43.58248" lon="3.69856">
        <ele>122.1</ele>
        <time>2022-08-13T06:37:00.180Z</time>
      </trkpt>
      <trkpt lat="43.58262" lon="3.69891">
        <ele>120.8</ele>
        <time>2022-08-13T06:37:27.258Z</time>
      </trkpt>
      <trkpt lat="43.58295" lon="3.69901">
        <ele>119.7</ele>
        <time>2022-08-13T06:37:43.341Z</time>
      </trkpt>
      <trkpt lat="43.58346" lon="3.69931">
        <ele>119.6</ele>
        <time>2022-08-13T06:38:02.577Z</time>
      </trkpt>
      <trkpt lat="43.58353" lon="3.69941">
        <ele>120.2</ele>
        <time>2022-08-13T06:38:06.072Z</time>
      </trkpt>
      <trkpt lat="43.5837" lon="3.69956">
        <ele>121.5</ele>
        <time>2022-08-13T06:38:13.073Z</time>
      </trkpt>
      <trkpt lat="43.58411" lon="3.69971">
        <ele>122</ele>
        <time>2022-08-13T06:38:27.790Z</time>
      </trkpt>
      <trkpt lat="43.58426" lon="3.69985">
        <ele>121.5</ele>
        <time>2022-08-13T06:38:34.072Z</time>
      </trkpt>
      <trkpt lat="43.58482" lon="3.70016">
        <ele>120.7</ele>
        <time>2022-08-13T06:38:43.458Z</time>
      </trkpt>
      <trkpt lat="43.58551" lon="3.70046">
        <ele>116.7</ele>
        <time>2022-08-13T06:38:52.621Z</time>
      </trkpt>
      <trkpt lat="43.58619" lon="3.70022">
        <ele>105.7</ele>
        <time>2022-08-13T06:39:01.512Z</time>
      </trkpt>
      <trkpt lat="43.58634" lon="3.70027">
        <ele>102.1</ele>
        <time>2022-08-13T06:39:03.466Z</time>
      </trkpt>
      <trkpt lat="43.58654" lon="3.70024">
        <ele>97.9</ele>
        <time>2022-08-13T06:39:06.145Z</time>
      </trkpt>
      <trkpt lat="43.58718" lon="3.69985">
        <ele>85.3</ele>
        <time>2022-08-13T06:39:15.006Z</time>
      </trkpt>
      <trkpt lat="43.58725" lon="3.69984">
        <ele>84.4</ele>
        <time>2022-08-13T06:39:15.898Z</time>
      </trkpt>
      <trkpt lat="43.58735" lon="3.69975">
        <ele>84.3</ele>
        <time>2022-08-13T06:39:20.040Z</time>
      </trkpt>
      <trkpt lat="43.58765" lon="3.69981">
        <ele>78.8</ele>
        <time>2022-08-13T06:39:23.880Z</time>
      </trkpt>
      <trkpt lat="43.58785" lon="3.6997">
        <ele>76.9</ele>
        <time>2022-08-13T06:39:36.644Z</time>
      </trkpt>
      <trkpt lat="43.58794" lon="3.69968">
        <ele>76.5</ele>
        <time>2022-08-13T06:39:45.728Z</time>
      </trkpt>
      <trkpt lat="43.58812" lon="3.69941">
        <ele>77</ele>
        <time>2022-08-13T06:39:54.951Z</time>
      </trkpt>
      <trkpt lat="43.58827" lon="3.69948">
        <ele>82.3</ele>
        <time>2022-08-13T06:40:00.444Z</time>
      </trkpt>
      <trkpt lat="43.58832" lon="3.69947">
        <ele>83.8</ele>
        <time>2022-08-13T06:40:02.197Z</time>
      </trkpt>
      <trkpt lat="43.58861" lon="3.69911">
        <ele>89.4</ele>
        <time>2022-08-13T06:40:30.927Z</time>
      </trkpt>
      <trkpt lat="43.58894" lon="3.69867">
        <ele>94.6</ele>
        <time>2022-08-13T06:40:57.427Z</time>
      </trkpt>
      <trkpt lat="43.58905" lon="3.69842">
        <ele>93.8</ele>
        <time>2022-08-13T06:41:04.778Z</time>
      </trkpt>
      <trkpt lat="43.58922" lon="3.69834">
        <ele>95.1</ele>
        <time>2022-08-13T06:41:28.816Z</time>
      </trkpt>
      <trkpt lat="43.58941" lon="3.69841">
        <ele>96.1</ele>
        <time>2022-08-13T06:41:46.859Z</time>
      </trkpt>
      <trkpt lat="43.58952" lon="3.69859">
        <ele>99.3</ele>
        <time>2022-08-13T06:42:05.360Z</time>
      </trkpt>
      <trkpt lat="43.58956" lon="3.69883">
        <ele>102.3</ele>
        <time>2022-08-13T06:42:16.630Z</time>
      </trkpt>
      <trkpt lat="43.58962" lon="3.69897">
        <ele>103.7</ele>
        <time>2022-08-13T06:42:25.895Z</time>
      </trkpt>
      <trkpt lat="43.58974" lon="3.69895">
        <ele>103.7</ele>
        <time>2022-08-13T06:42:30.089Z</time>
      </trkpt>
      <trkpt lat="43.58991" lon="3.69881">
        <ele>105.1</ele>
        <time>2022-08-13T06:42:36.958Z</time>
      </trkpt>
      <trkpt lat="43.59002" lon="3.69883">
        <ele>106.5</ele>
        <time>2022-08-13T06:42:38.363Z</time>
      </trkpt>
      <trkpt lat="43.59002" lon="3.69922">
        <ele>110.3</ele>
        <time>2022-08-13T06:43:16.168Z</time>
      </trkpt>
      <trkpt lat="43.59004" lon="3.69941">
        <ele>111.3</ele>
        <time>2022-08-13T06:43:20.993Z</time>
      </trkpt>
      <trkpt lat="43.59012" lon="3.6996">
        <ele>113.2</ele>
        <time>2022-08-13T06:43:31.536Z</time>
      </trkpt>
      <trkpt lat="43.59105" lon="3.70091">
        <ele>121.3</ele>
        <time>2022-08-13T06:45:38.042Z</time>
      </trkpt>
      <trkpt lat="43.59114" lon="3.70109">
        <ele>122.9</ele>
        <time>2022-08-13T06:45:43.539Z</time>
      </trkpt>
      <trkpt lat="43.59135" lon="3.70174">
        <ele>127.3</ele>
        <time>2022-08-13T06:46:28.729Z</time>
      </trkpt>
      <trkpt lat="43.59146" lon="3.70191">
        <ele>127.9</ele>
        <time>2022-08-13T06:46:34.458Z</time>
      </trkpt>
      <trkpt lat="43.59202" lon="3.70235">
        <ele>128</ele>
        <time>2022-08-13T06:46:56.815Z</time>
      </trkpt>
      <trkpt lat="43.59256" lon="3.70247">
        <ele>129</ele>
        <time>2022-08-13T06:47:19.610Z</time>
      </trkpt>
      <trkpt lat="43.59307" lon="3.70296">
        <ele>130</ele>
        <time>2022-08-13T06:47:41.169Z</time>
      </trkpt>
      <trkpt lat="43.59338" lon="3.70312">
        <ele>130.2</ele>
        <time>2022-08-13T06:48:02.721Z</time>
      </trkpt>
      <trkpt lat="43.59452" lon="3.70358">
        <ele>129.5</ele>
        <time>2022-08-13T06:49:02.315Z</time>
      </trkpt>
      <trkpt lat="43.59467" lon="3.70378">
        <ele>130.7</ele>
        <time>2022-08-13T06:49:14.799Z</time>
      </trkpt>
      <trkpt lat="43.59468" lon="3.70395">
        <ele>131.6</ele>
        <time>2022-08-13T06:49:19.085Z</time>
      </trkpt>
      <trkpt lat="43.5945" lon="3.70524">
        <ele>132.6</ele>
        <time>2022-08-13T06:49:38.308Z</time>
      </trkpt>
      <trkpt lat="43.59458" lon="3.70557">
        <ele>133</ele>
        <time>2022-08-13T06:49:47.053Z</time>
      </trkpt>
      <trkpt lat="43.59471" lon="3.70566">
        <ele>133.9</ele>
        <time>2022-08-13T06:49:57.113Z</time>
      </trkpt>
      <trkpt lat="43.59506" lon="3.70571">
        <ele>137.1</ele>
        <time>2022-08-13T06:50:44.204Z</time>
      </trkpt>
      <trkpt lat="43.59526" lon="3.70583">
        <ele>138.8</ele>
        <time>2022-08-13T06:50:57.085Z</time>
      </trkpt>
      <trkpt lat="43.59547" lon="3.70602">
        <ele>140.4</ele>
        <time>2022-08-13T06:51:05.797Z</time>
      </trkpt>
      <trkpt lat="43.59587" lon="3.70656">
        <ele>141.7</ele>
        <time>2022-08-13T06:51:45.303Z</time>
      </trkpt>
      <trkpt lat="43.59691" lon="3.70779">
        <ele>146.6</ele>
        <time>2022-08-13T06:52:50.173Z</time>
      </trkpt>
      <trkpt lat="43.59717" lon="3.70804">
        <ele>147.8</ele>
        <time>2022-08-13T06:53:01.166Z</time>
      </trkpt>
      <trkpt lat="43.59746" lon="3.70885">
        <ele>144.3</ele>
        <time>2022-08-13T06:53:09.455Z</time>
      </trkpt>
      <trkpt lat="43.59774" lon="3.70929">
        <ele>141.5</ele>
        <time>2022-08-13T06:53:14.828Z</time>
      </trkpt>
      <trkpt lat="43.59831" lon="3.70971">
        <ele>139.1</ele>
        <time>2022-08-13T06:53:23.683Z</time>
      </trkpt>
      <trkpt lat="43.59867" lon="3.70982">
        <ele>136.4</ele>
        <time>2022-08-13T06:53:29.793Z</time>
      </trkpt>
      <trkpt lat="43.59903" lon="3.70979">
        <ele>134.1</ele>
        <time>2022-08-13T06:53:35.731Z</time>
      </trkpt>
      <trkpt lat="43.59937" lon="3.70958">
        <ele>131.4</ele>
        <time>2022-08-13T06:53:52.869Z</time>
      </trkpt>
      <trkpt lat="43.59956" lon="3.7094">
        <ele>130.6</ele>
        <time>2022-08-13T06:54:00.864Z</time>
      </trkpt>
      <trkpt lat="43.59973" lon="3.70907">
        <ele>129.7</ele>
        <time>2022-08-13T06:54:40.114Z</time>
      </trkpt>
      <trkpt lat="43.59982" lon="3.7087">
        <ele>132.2</ele>
        <time>2022-08-13T06:54:54.624Z</time>
      </trkpt>
      <trkpt lat="43.59984" lon="3.70845">
        <ele>133.5</ele>
        <time>2022-08-13T06:55:06.041Z</time>
      </trkpt>
      <trkpt lat="43.59992" lon="3.70826">
        <ele>134.2</ele>
        <time>2022-08-13T06:55:27.342Z</time>
      </trkpt>
      <trkpt lat="43.60015" lon="3.70793">
        <ele>137.9</ele>
        <time>2022-08-13T06:56:11.732Z</time>
      </trkpt>
      <trkpt lat="43.60029" lon="3.70759">
        <ele>137.5</ele>
        <time>2022-08-13T06:56:26.257Z</time>
      </trkpt>
      <trkpt lat="43.60043" lon="3.70689">
        <ele>143.6</ele>
        <time>2022-08-13T06:57:04.733Z</time>
      </trkpt>
      <trkpt lat="43.60068" lon="3.70602">
        <ele>148.3</ele>
        <time>2022-08-13T06:57:36.963Z</time>
      </trkpt>
      <trkpt lat="43.6007" lon="3.70532">
        <ele>152.6</ele>
        <time>2022-08-13T06:58:44.858Z</time>
      </trkpt>
      <trkpt lat="43.60081" lon="3.70463">
        <ele>155.6</ele>
        <time>2022-08-13T06:59:40.365Z</time>
      </trkpt>
      <trkpt lat="43.6009" lon="3.70445">
        <ele>157.4</ele>
        <time>2022-08-13T06:59:42.371Z</time>
      </trkpt>
      <trkpt lat="43.60118" lon="3.7042">
        <ele>158.9</ele>
        <time>2022-08-13T06:59:58.323Z</time>
      </trkpt>
      <trkpt lat="43.60136" lon="3.70418">
        <ele>159.8</ele>
        <time>2022-08-13T07:00:04.589Z</time>
      </trkpt>
      <trkpt lat="43.60174" lon="3.70434">
        <ele>163.1</ele>
        <time>2022-08-13T07:00:33.530Z</time>
      </trkpt>
      <trkpt lat="43.60259" lon="3.70432">
        <ele>173.1</ele>
        <time>2022-08-13T07:01:46.070Z</time>
      </trkpt>
      <trkpt lat="43.60272" lon="3.70438">
        <ele>174.6</ele>
        <time>2022-08-13T07:01:55.858Z</time>
      </trkpt>
      <trkpt lat="43.60277" lon="3.70448">
        <ele>175.4</ele>
        <time>2022-08-13T07:02:05.015Z</time>
      </trkpt>
      <trkpt lat="43.6028" lon="3.70464">
        <ele>178</ele>
        <time>2022-08-13T07:02:09.168Z</time>
      </trkpt>
      <trkpt lat="43.60303" lon="3.7046">
        <ele>179.3</ele>
        <time>2022-08-13T07:02:22.466Z</time>
      </trkpt>
      <trkpt lat="43.60319" lon="3.70463">
        <ele>181.9</ele>
        <time>2022-08-13T07:02:28.068Z</time>
      </trkpt>
      <trkpt lat="43.60328" lon="3.70451">
        <ele>182.7</ele>
        <time>2022-08-13T07:02:32.409Z</time>
      </trkpt>
      <trkpt lat="43.60355" lon="3.70399">
        <ele>186.3</ele>
        <time>2022-08-13T07:03:09.303Z</time>
      </trkpt>
      <trkpt lat="43.60328" lon="3.70377">
        <ele>185.7</ele>
        <time>2022-08-13T07:03:14.242Z</time>
      </trkpt>
      <trkpt lat="43.60314" lon="3.70361">
        <ele>187.7</ele>
        <time>2022-08-13T07:03:20.548Z</time>
      </trkpt>
      <trkpt lat="43.60302" lon="3.70354">
        <ele>189.1</ele>
        <time>2022-08-13T07:03:30.132Z</time>
      </trkpt>
      <trkpt lat="43.60255" lon="3.70344">
        <ele>193.8</ele>
        <time>2022-08-13T07:04:07.289Z</time>
      </trkpt>
      <trkpt lat="43.60241" lon="3.70336">
        <ele>195.6</ele>
        <time>2022-08-13T07:04:09.056Z</time>
      </trkpt>
      <trkpt lat="43.60201" lon="3.703">
        <ele>198.9</ele>
        <time>2022-08-13T07:04:40.683Z</time>
      </trkpt>
      <trkpt lat="43.60152" lon="3.70223">
        <ele>198.3</ele>
        <time>2022-08-13T07:05:31.498Z</time>
      </trkpt>
      <trkpt lat="43.60151" lon="3.7021">
        <ele>198.2</ele>
        <time>2022-08-13T07:05:34.783Z</time>
      </trkpt>
      <trkpt lat="43.60142" lon="3.70198">
        <ele>197.9</ele>
        <time>2022-08-13T07:05:39.124Z</time>
      </trkpt>
      <trkpt lat="43.60119" lon="3.70127">
        <ele>196.9</ele>
        <time>2022-08-13T07:05:49.511Z</time>
      </trkpt>
      <trkpt lat="43.60118" lon="3.70116">
        <ele>196.4</ele>
        <time>2022-08-13T07:05:52.296Z</time>
      </trkpt>
      <trkpt lat="43.60127" lon="3.70112">
        <ele>192.2</ele>
        <time>2022-08-13T07:05:53.494Z</time>
      </trkpt>
      <trkpt lat="43.60144" lon="3.70118">
        <ele>187</ele>
        <time>2022-08-13T07:05:55.691Z</time>
      </trkpt>
      <trkpt lat="43.60156" lon="3.70113">
        <ele>184.2</ele>
        <time>2022-08-13T07:05:57.279Z</time>
      </trkpt>
      <trkpt lat="43.60177" lon="3.7006">
        <ele>176.7</ele>
        <time>2022-08-13T07:06:02.821Z</time>
      </trkpt>
      <trkpt lat="43.60213" lon="3.70005">
        <ele>168.7</ele>
        <time>2022-08-13T07:06:09.621Z</time>
      </trkpt>
      <trkpt lat="43.60227" lon="3.69967">
        <ele>163.6</ele>
        <time>2022-08-13T07:06:13.532Z</time>
      </trkpt>
      <trkpt lat="43.60231" lon="3.69921">
        <ele>161.4</ele>
        <time>2022-08-13T07:06:17.645Z</time>
      </trkpt>
      <trkpt lat="43.60216" lon="3.69876">
        <ele>159.9</ele>
        <time>2022-08-13T07:06:22.189Z</time>
      </trkpt>
      <trkpt lat="43.60192" lon="3.69851">
        <ele>158.1</ele>
        <time>2022-08-13T07:06:26.860Z</time>
      </trkpt>
      <trkpt lat="43.60178" lon="3.69843">
        <ele>157.8</ele>
        <time>2022-08-13T07:06:28.627Z</time>
      </trkpt>
      <trkpt lat="43.60167" lon="3.69819">
        <ele>156.1</ele>
        <time>2022-08-13T07:06:40.994Z</time>
      </trkpt>
      <trkpt lat="43.60173" lon="3.69812">
        <ele>157.3</ele>
        <time>2022-08-13T07:06:50.652Z</time>
      </trkpt>
      <trkpt lat="43.60207" lon="3.69831">
        <ele>161.5</ele>
        <time>2022-08-13T07:07:13.585Z</time>
      </trkpt>
      <trkpt lat="43.6022" lon="3.69847">
        <ele>162.6</ele>
        <time>2022-08-13T07:07:15.791Z</time>
      </trkpt>
      <trkpt lat="43.60228" lon="3.69851">
        <ele>163.9</ele>
        <time>2022-08-13T07:07:25.050Z</time>
      </trkpt>
      <trkpt lat="43.60257" lon="3.69859">
        <ele>169.8</ele>
        <time>2022-08-13T07:07:45.336Z</time>
      </trkpt>
      <trkpt lat="43.60282" lon="3.69874">
        <ele>173.8</ele>
        <time>2022-08-13T07:07:54.793Z</time>
      </trkpt>
      <trkpt lat="43.60295" lon="3.69873">
        <ele>175.9</ele>
        <time>2022-08-13T07:08:04.376Z</time>
      </trkpt>
      <trkpt lat="43.60315" lon="3.69852">
        <ele>178.9</ele>
        <time>2022-08-13T07:08:18.095Z</time>
      </trkpt>
      <trkpt lat="43.6033" lon="3.69821">
        <ele>179.5</ele>
        <time>2022-08-13T07:08:32.273Z</time>
      </trkpt>
      <trkpt lat="43.60345" lon="3.69811">
        <ele>177.7</ele>
        <time>2022-08-13T07:08:34.383Z</time>
      </trkpt>
      <trkpt lat="43.6036" lon="3.69805">
        <ele>175.1</ele>
        <time>2022-08-13T07:08:36.361Z</time>
      </trkpt>
      <trkpt lat="43.60388" lon="3.6978">
        <ele>166.5</ele>
        <time>2022-08-13T07:08:40.584Z</time>
      </trkpt>
      <trkpt lat="43.60402" lon="3.69779">
        <ele>163.3</ele>
        <time>2022-08-13T07:08:42.360Z</time>
      </trkpt>
      <trkpt lat="43.60481" lon="3.69736">
        <ele>155</ele>
        <time>2022-08-13T07:08:53.116Z</time>
      </trkpt>
      <trkpt lat="43.60492" lon="3.69722">
        <ele>153.5</ele>
        <time>2022-08-13T07:08:58.307Z</time>
      </trkpt>
      <trkpt lat="43.60496" lon="3.69696">
        <ele>150.2</ele>
        <time>2022-08-13T07:09:00.745Z</time>
      </trkpt>
      <trkpt lat="43.60511" lon="3.69665">
        <ele>142.6</ele>
        <time>2022-08-13T07:09:04.164Z</time>
      </trkpt>
      <trkpt lat="43.60559" lon="3.69599">
        <ele>122.5</ele>
        <time>2022-08-13T07:09:12.744Z</time>
      </trkpt>
      <trkpt lat="43.60566" lon="3.69581">
        <ele>119.1</ele>
        <time>2022-08-13T07:09:17.878Z</time>
      </trkpt>
      <trkpt lat="43.60586" lon="3.69586">
        <ele>116.9</ele>
        <time>2022-08-13T07:09:20.596Z</time>
      </trkpt>
      <trkpt lat="43.60594" lon="3.69575">
        <ele>120.5</ele>
        <time>2022-08-13T07:09:35.705Z</time>
      </trkpt>
      <trkpt lat="43.60621" lon="3.69563">
        <ele>130.7</ele>
        <time>2022-08-13T07:10:13.665Z</time>
      </trkpt>
      <trkpt lat="43.60631" lon="3.69563">
        <ele>133</ele>
        <time>2022-08-13T07:10:22.688Z</time>
      </trkpt>
      <trkpt lat="43.60664" lon="3.69586">
        <ele>133.8</ele>
        <time>2022-08-13T07:10:27.370Z</time>
      </trkpt>
      <trkpt lat="43.60693" lon="3.69622">
        <ele>130.8</ele>
        <time>2022-08-13T07:10:56.098Z</time>
      </trkpt>
      <trkpt lat="43.60703" lon="3.69656">
        <ele>129.6</ele>
        <time>2022-08-13T07:11:00.052Z</time>
      </trkpt>
      <trkpt lat="43.60707" lon="3.69694">
        <ele>129.6</ele>
        <time>2022-08-13T07:11:03.574Z</time>
      </trkpt>
      <trkpt lat="43.60717" lon="3.69712">
        <ele>131.2</ele>
        <time>2022-08-13T07:11:09.274Z</time>
      </trkpt>
      <trkpt lat="43.60731" lon="3.6972">
        <ele>132.2</ele>
        <time>2022-08-13T07:11:14.531Z</time>
      </trkpt>
      <trkpt lat="43.60762" lon="3.69719">
        <ele>135.7</ele>
        <time>2022-08-13T07:11:56.031Z</time>
      </trkpt>
      <trkpt lat="43.6079" lon="3.69702">
        <ele>140.3</ele>
        <time>2022-08-13T07:12:23.123Z</time>
      </trkpt>
      <trkpt lat="43.6082" lon="3.69694">
        <ele>144.2</ele>
        <time>2022-08-13T07:12:50.214Z</time>
      </trkpt>
      <trkpt lat="43.60837" lon="3.69683">
        <ele>148.5</ele>
        <time>2022-08-13T07:13:15.339Z</time>
      </trkpt>
      <trkpt lat="43.60869" lon="3.69688">
        <ele>152.3</ele>
        <time>2022-08-13T07:13:30.954Z</time>
      </trkpt>
      <trkpt lat="43.60895" lon="3.69688">
        <ele>156.5</ele>
        <time>2022-08-13T07:13:50.108Z</time>
      </trkpt>
      <trkpt lat="43.609" lon="3.69682">
        <ele>157.6</ele>
        <time>2022-08-13T07:13:58.972Z</time>
      </trkpt>
      <trkpt lat="43.60948" lon="3.69677">
        <ele>159.8</ele>
        <time>2022-08-13T07:14:15.675Z</time>
      </trkpt>
      <trkpt lat="43.60966" lon="3.69685">
        <ele>159</ele>
        <time>2022-08-13T07:14:18.125Z</time>
      </trkpt>
      <trkpt lat="43.60977" lon="3.69697">
        <ele>158.8</ele>
        <time>2022-08-13T07:14:22.989Z</time>
      </trkpt>
      <trkpt lat="43.60992" lon="3.69701">
        <ele>158</ele>
        <time>2022-08-13T07:14:28.289Z</time>
      </trkpt>
      <trkpt lat="43.61011" lon="3.69688">
        <ele>155.6</ele>
        <time>2022-08-13T07:14:30.975Z</time>
      </trkpt>
      <trkpt lat="43.61028" lon="3.69658">
        <ele>152.3</ele>
        <time>2022-08-13T07:14:34.469Z</time>
      </trkpt>
      <trkpt lat="43.61043" lon="3.69619">
        <ele>147.4</ele>
        <time>2022-08-13T07:14:38.299Z</time>
      </trkpt>
      <trkpt lat="43.61058" lon="3.69599">
        <ele>143.2</ele>
        <time>2022-08-13T07:14:40.940Z</time>
      </trkpt>
      <trkpt lat="43.61074" lon="3.69635">
        <ele>144</ele>
        <time>2022-08-13T07:14:51.552Z</time>
      </trkpt>
      <trkpt lat="43.61069" lon="3.69661">
        <ele>145.9</ele>
        <time>2022-08-13T07:14:58.310Z</time>
      </trkpt>
      <trkpt lat="43.61063" lon="3.69737">
        <ele>148.8</ele>
        <time>2022-08-13T07:15:32.843Z</time>
      </trkpt>
      <trkpt lat="43.61049" lon="3.69782">
        <ele>152.2</ele>
        <time>2022-08-13T07:16:09.400Z</time>
      </trkpt>
      <trkpt lat="43.6104" lon="3.69824">
        <ele>154.7</ele>
        <time>2022-08-13T07:16:24.873Z</time>
      </trkpt>
      <trkpt lat="43.61044" lon="3.69874">
        <ele>156.6</ele>
        <time>2022-08-13T07:16:52.918Z</time>
      </trkpt>
      <trkpt lat="43.61051" lon="3.69923">
        <ele>158.3</ele>
        <time>2022-08-13T07:17:15.648Z</time>
      </trkpt>
      <trkpt lat="43.61057" lon="3.69985">
        <ele>161.7</ele>
        <time>2022-08-13T07:17:42.037Z</time>
      </trkpt>
      <trkpt lat="43.61069" lon="3.70049">
        <ele>165.6</ele>
        <time>2022-08-13T07:18:27.189Z</time>
      </trkpt>
      <trkpt lat="43.61085" lon="3.70115">
        <ele>168</ele>
        <time>2022-08-13T07:18:44.674Z</time>
      </trkpt>
      <trkpt lat="43.61115" lon="3.70268">
        <ele>176.8</ele>
        <time>2022-08-13T07:20:16.693Z</time>
      </trkpt>
      <trkpt lat="43.61115" lon="3.70283">
        <ele>178.4</ele>
        <time>2022-08-13T07:20:25.790Z</time>
      </trkpt>
      <trkpt lat="43.61147" lon="3.7033">
        <ele>180.9</ele>
        <time>2022-08-13T07:20:45.951Z</time>
      </trkpt>
      <trkpt lat="43.61164" lon="3.70371">
        <ele>183.3</ele>
        <time>2022-08-13T07:21:07.925Z</time>
      </trkpt>
      <trkpt lat="43.612" lon="3.70417">
        <ele>183.6</ele>
        <time>2022-08-13T07:21:28.850Z</time>
      </trkpt>
      <trkpt lat="43.61224" lon="3.70445">
        <ele>183.8</ele>
        <time>2022-08-13T07:21:39.751Z</time>
      </trkpt>
      <trkpt lat="43.6125" lon="3.70534">
        <ele>187.2</ele>
        <time>2022-08-13T07:22:24.107Z</time>
      </trkpt>
      <trkpt lat="43.6128" lon="3.70617">
        <ele>190.1</ele>
        <time>2022-08-13T07:23:03.481Z</time>
      </trkpt>
      <trkpt lat="43.61301" lon="3.70676">
        <ele>191.5</ele>
        <time>2022-08-13T07:23:19.997Z</time>
      </trkpt>
      <trkpt lat="43.61329" lon="3.70738">
        <ele>189.7</ele>
        <time>2022-08-13T07:23:27.855Z</time>
      </trkpt>
      <trkpt lat="43.61344" lon="3.7078">
        <ele>187.6</ele>
        <time>2022-08-13T07:23:33.333Z</time>
      </trkpt>
      <trkpt lat="43.61343" lon="3.70815">
        <ele>185</ele>
        <time>2022-08-13T07:23:36.546Z</time>
      </trkpt>
      <trkpt lat="43.61343" lon="3.70834">
        <ele>183.6</ele>
        <time>2022-08-13T07:23:38.288Z</time>
      </trkpt>
      <trkpt lat="43.61351" lon="3.70857">
        <ele>182.6</ele>
        <time>2022-08-13T07:23:49.808Z</time>
      </trkpt>
      <trkpt lat="43.61353" lon="3.7088">
        <ele>181.5</ele>
        <time>2022-08-13T07:23:55.628Z</time>
      </trkpt>
      <trkpt lat="43.61355" lon="3.70896">
        <ele>181.3</ele>
        <time>2022-08-13T07:23:57.117Z</time>
      </trkpt>
      <trkpt lat="43.61352" lon="3.70898">
        <ele>181</ele>
        <time>2022-08-13T07:23:58.273Z</time>
      </trkpt>
      <trkpt lat="43.61308" lon="3.70963">
        <ele>177</ele>
        <time>2022-08-13T07:24:06.018Z</time>
      </trkpt>
      <trkpt lat="43.6129" lon="3.70961">
        <ele>174.9</ele>
        <time>2022-08-13T07:24:08.309Z</time>
      </trkpt>
      <trkpt lat="43.61251" lon="3.70972">
        <ele>172.1</ele>
        <time>2022-08-13T07:24:15.051Z</time>
      </trkpt>
      <trkpt lat="43.61197" lon="3.70967">
        <ele>168.7</ele>
        <time>2022-08-13T07:24:21.907Z</time>
      </trkpt>
      <trkpt lat="43.61142" lon="3.70969">
        <ele>165.6</ele>
        <time>2022-08-13T07:24:28.876Z</time>
      </trkpt>
      <trkpt lat="43.61077" lon="3.70953">
        <ele>162.5</ele>
        <time>2022-08-13T07:24:38.007Z</time>
      </trkpt>
      <trkpt lat="43.61019" lon="3.70933">
        <ele>160.8</ele>
        <time>2022-08-13T07:24:49.169Z</time>
      </trkpt>
      <trkpt lat="43.6099" lon="3.70929">
        <ele>160</ele>
        <time>2022-08-13T07:24:59.281Z</time>
      </trkpt>
      <trkpt lat="43.60913" lon="3.70957">
        <ele>157.6</ele>
        <time>2022-08-13T07:25:26.909Z</time>
      </trkpt>
      <trkpt lat="43.60888" lon="3.70979">
        <ele>157.3</ele>
        <time>2022-08-13T07:25:37.194Z</time>
      </trkpt>
      <trkpt lat="43.60855" lon="3.71035">
        <ele>161.7</ele>
        <time>2022-08-13T07:25:59.187Z</time>
      </trkpt>
      <trkpt lat="43.60847" lon="3.71056">
        <ele>163</ele>
        <time>2022-08-13T07:26:05.149Z</time>
      </trkpt>
      <trkpt lat="43.60845" lon="3.71077">
        <ele>163.2</ele>
        <time>2022-08-13T07:26:06.949Z</time>
      </trkpt>
      <trkpt lat="43.60845" lon="3.71195">
        <ele>163.6</ele>
        <time>2022-08-13T07:27:12.499Z</time>
      </trkpt>
      <trkpt lat="43.60856" lon="3.7126">
        <ele>167</ele>
        <time>2022-08-13T07:27:39.506Z</time>
      </trkpt>
      <trkpt lat="43.60854" lon="3.71304">
        <ele>166.4</ele>
        <time>2022-08-13T07:28:00.624Z</time>
      </trkpt>
      <trkpt lat="43.60843" lon="3.7142">
        <ele>168.2</ele>
        <time>2022-08-13T07:28:15.216Z</time>
      </trkpt>
      <trkpt lat="43.60845" lon="3.71466">
        <ele>169.4</ele>
        <time>2022-08-13T07:28:36.870Z</time>
      </trkpt>
      <trkpt lat="43.60864" lon="3.7156">
        <ele>168.9</ele>
        <time>2022-08-13T07:29:01.389Z</time>
      </trkpt>
      <trkpt lat="43.60865" lon="3.71647">
        <ele>169.7</ele>
        <time>2022-08-13T07:29:13.277Z</time>
      </trkpt>
      <trkpt lat="43.60862" lon="3.71693">
        <ele>170.2</ele>
        <time>2022-08-13T07:29:29.257Z</time>
      </trkpt>
      <trkpt lat="43.60852" lon="3.71708">
        <ele>169.5</ele>
        <time>2022-08-13T07:29:34.380Z</time>
      </trkpt>
      <trkpt lat="43.60819" lon="3.71715">
        <ele>169.5</ele>
        <time>2022-08-13T07:29:38.464Z</time>
      </trkpt>
      <trkpt lat="43.60752" lon="3.71717">
        <ele>172.5</ele>
        <time>2022-08-13T07:30:17.774Z</time>
      </trkpt>
      <trkpt lat="43.60752" lon="3.71704">
        <ele>171.5</ele>
        <time>2022-08-13T07:30:21.040Z</time>
      </trkpt>
      <trkpt lat="43.60759" lon="3.71677">
        <ele>170.6</ele>
        <time>2022-08-13T07:30:23.843Z</time>
      </trkpt>
      <trkpt lat="43.60766" lon="3.71567">
        <ele>169.4</ele>
        <time>2022-08-13T07:30:37.402Z</time>
      </trkpt>
      <trkpt lat="43.60776" lon="3.71531">
        <ele>168.2</ele>
        <time>2022-08-13T07:30:40.939Z</time>
      </trkpt>
      <trkpt lat="43.60777" lon="3.715">
        <ele>168.1</ele>
        <time>2022-08-13T07:30:48.735Z</time>
      </trkpt>
      <trkpt lat="43.60768" lon="3.71479">
        <ele>166.7</ele>
        <time>2022-08-13T07:30:50.955Z</time>
      </trkpt>
      <trkpt lat="43.60757" lon="3.71467">
        <ele>167.1</ele>
        <time>2022-08-13T07:30:55.818Z</time>
      </trkpt>
      <trkpt lat="43.60723" lon="3.71461">
        <ele>170.3</ele>
        <time>2022-08-13T07:31:23.394Z</time>
      </trkpt>
      <trkpt lat="43.60691" lon="3.71429">
        <ele>172.6</ele>
        <time>2022-08-13T07:31:37.102Z</time>
      </trkpt>
      <trkpt lat="43.60682" lon="3.7141">
        <ele>171.8</ele>
        <time>2022-08-13T07:31:39.098Z</time>
      </trkpt>
      <trkpt lat="43.60679" lon="3.71415">
        <ele>172.1</ele>
        <time>2022-08-13T07:31:40.730Z</time>
      </trkpt>
      <trkpt lat="43.60682" lon="3.71441">
        <ele>174.5</ele>
        <time>2022-08-13T07:31:58.796Z</time>
      </trkpt>
      <trkpt lat="43.60712" lon="3.71563">
        <ele>186</ele>
        <time>2022-08-13T07:33:12.713Z</time>
      </trkpt>
      <trkpt lat="43.60714" lon="3.71582">
        <ele>186.6</ele>
        <time>2022-08-13T07:33:17.536Z</time>
      </trkpt>
      <trkpt lat="43.6071" lon="3.71626">
        <ele>187.2</ele>
        <time>2022-08-13T07:33:44.766Z</time>
      </trkpt>
      <trkpt lat="43.60699" lon="3.71648">
        <ele>188.8</ele>
        <time>2022-08-13T07:33:56.640Z</time>
      </trkpt>
      <trkpt lat="43.60687" lon="3.7166">
        <ele>189.9</ele>
        <time>2022-08-13T07:34:16.468Z</time>
      </trkpt>
      <trkpt lat="43.60626" lon="3.71686">
        <ele>193.5</ele>
        <time>2022-08-13T07:35:41.907Z</time>
      </trkpt>
      <trkpt lat="43.60614" lon="3.71701">
        <ele>194.1</ele>
        <time>2022-08-13T07:35:52.548Z</time>
      </trkpt>
      <trkpt lat="43.6061" lon="3.71715">
        <ele>194.5</ele>
        <time>2022-08-13T07:35:56.330Z</time>
      </trkpt>
      <trkpt lat="43.60615" lon="3.71733">
        <ele>195.2</ele>
        <time>2022-08-13T07:35:58.098Z</time>
      </trkpt>
      <trkpt lat="43.6065" lon="3.71801">
        <ele>199.6</ele>
        <time>2022-08-13T07:36:22.805Z</time>
      </trkpt>
      <trkpt lat="43.60655" lon="3.71825">
        <ele>202.8</ele>
        <time>2022-08-13T07:36:34.171Z</time>
      </trkpt>
      <trkpt lat="43.60647" lon="3.71829">
        <ele>203.4</ele>
        <time>2022-08-13T07:36:37.123Z</time>
      </trkpt>
      <trkpt lat="43.60607" lon="3.71812">
        <ele>204.1</ele>
        <time>2022-08-13T07:36:51.645Z</time>
      </trkpt>
      <trkpt lat="43.60574" lon="3.71789">
        <ele>206.3</ele>
        <time>2022-08-13T07:37:19.824Z</time>
      </trkpt>
      <trkpt lat="43.60563" lon="3.71774">
        <ele>208.1</ele>
        <time>2022-08-13T07:37:30.202Z</time>
      </trkpt>
      <trkpt lat="43.60522" lon="3.71752">
        <ele>213.5</ele>
        <time>2022-08-13T07:38:06.671Z</time>
      </trkpt>
      <trkpt lat="43.60509" lon="3.7175">
        <ele>215</ele>
        <time>2022-08-13T07:38:24.177Z</time>
      </trkpt>
      <trkpt lat="43.60455" lon="3.71771">
        <ele>218.3</ele>
        <time>2022-08-13T07:38:53.081Z</time>
      </trkpt>
      <trkpt lat="43.60444" lon="3.71771">
        <ele>219.8</ele>
        <time>2022-08-13T07:38:56.898Z</time>
      </trkpt>
      <trkpt lat="43.60428" lon="3.71782">
        <ele>220.8</ele>
        <time>2022-08-13T07:39:08.182Z</time>
      </trkpt>
      <trkpt lat="43.60411" lon="3.71802">
        <ele>220.9</ele>
        <time>2022-08-13T07:39:26.471Z</time>
      </trkpt>
      <trkpt lat="43.60277" lon="3.72015">
        <ele>232</ele>
        <time>2022-08-13T07:40:57.847Z</time>
      </trkpt>
      <trkpt lat="43.60265" lon="3.72024">
        <ele>232.4</ele>
        <time>2022-08-13T07:41:02.585Z</time>
      </trkpt>
      <trkpt lat="43.60253" lon="3.7202">
        <ele>232.6</ele>
        <time>2022-08-13T07:41:11.984Z</time>
      </trkpt>
      <trkpt lat="43.60238" lon="3.72002">
        <ele>231.2</ele>
        <time>2022-08-13T07:41:38.580Z</time>
      </trkpt>
      <trkpt lat="43.60226" lon="3.72">
        <ele>230.3</ele>
        <time>2022-08-13T07:41:40.111Z</time>
      </trkpt>
      <trkpt lat="43.60202" lon="3.72023">
        <ele>228</ele>
        <time>2022-08-13T07:41:43.811Z</time>
      </trkpt>
      <trkpt lat="43.60181" lon="3.72029">
        <ele>226</ele>
        <time>2022-08-13T07:41:46.745Z</time>
      </trkpt>
      <trkpt lat="43.60161" lon="3.72025">
        <ele>225.2</ele>
        <time>2022-08-13T07:41:49.305Z</time>
      </trkpt>
      <trkpt lat="43.60146" lon="3.72032">
        <ele>225.3</ele>
        <time>2022-08-13T07:41:51.193Z</time>
      </trkpt>
      <trkpt lat="43.60129" lon="3.72076">
        <ele>219.3</ele>
        <time>2022-08-13T07:41:57.141Z</time>
      </trkpt>
      <trkpt lat="43.60083" lon="3.72174">
        <ele>195.7</ele>
        <time>2022-08-13T07:42:07.853Z</time>
      </trkpt>
      <trkpt lat="43.60059" lon="3.72214">
        <ele>187.2</ele>
        <time>2022-08-13T07:42:12.618Z</time>
      </trkpt>
      <trkpt lat="43.60038" lon="3.72265">
        <ele>179.9</ele>
        <time>2022-08-13T07:42:18.000Z</time>
      </trkpt>
      <trkpt lat="43.6003" lon="3.72299">
        <ele>175.1</ele>
        <time>2022-08-13T07:42:21.279Z</time>
      </trkpt>
      <trkpt lat="43.60032" lon="3.72319">
        <ele>172.9</ele>
        <time>2022-08-13T07:42:23.131Z</time>
      </trkpt>
      <trkpt lat="43.60027" lon="3.72384">
        <ele>164.6</ele>
        <time>2022-08-13T07:42:29.127Z</time>
      </trkpt>
      <trkpt lat="43.60012" lon="3.72455">
        <ele>156.1</ele>
        <time>2022-08-13T07:42:35.911Z</time>
      </trkpt>
      <trkpt lat="43.60009" lon="3.72495">
        <ele>151.6</ele>
        <time>2022-08-13T07:42:39.600Z</time>
      </trkpt>
      <trkpt lat="43.60004" lon="3.72507">
        <ele>150.1</ele>
        <time>2022-08-13T07:42:40.870Z</time>
      </trkpt>
      <trkpt lat="43.5999" lon="3.72519">
        <ele>149.2</ele>
        <time>2022-08-13T07:42:42.957Z</time>
      </trkpt>
      <trkpt lat="43.59967" lon="3.72567">
        <ele>144.9</ele>
        <time>2022-08-13T07:42:48.237Z</time>
      </trkpt>
      <trkpt lat="43.59932" lon="3.7259">
        <ele>141.3</ele>
        <time>2022-08-13T07:42:53.147Z</time>
      </trkpt>
      <trkpt lat="43.59922" lon="3.72608">
        <ele>139.5</ele>
        <time>2022-08-13T07:42:55.141Z</time>
      </trkpt>
      <trkpt lat="43.59907" lon="3.72617">
        <ele>138.4</ele>
        <time>2022-08-13T07:42:57.122Z</time>
      </trkpt>
      <trkpt lat="43.59872" lon="3.72588">
        <ele>138.2</ele>
        <time>2022-08-13T07:43:11.284Z</time>
      </trkpt>
      <trkpt lat="43.59855" lon="3.7257">
        <ele>138.5</ele>
        <time>2022-08-13T07:43:29.439Z</time>
      </trkpt>
      <trkpt lat="43.59802" lon="3.72478">
        <ele>143.6</ele>
        <time>2022-08-13T07:44:13.058Z</time>
      </trkpt>
      <trkpt lat="43.59758" lon="3.7243">
        <ele>148.2</ele>
        <time>2022-08-13T07:44:47.878Z</time>
      </trkpt>
      <trkpt lat="43.59748" lon="3.72414">
        <ele>149</ele>
        <time>2022-08-13T07:45:07.575Z</time>
      </trkpt>
      <trkpt lat="43.59739" lon="3.72391">
        <ele>150.1</ele>
        <time>2022-08-13T07:45:25.651Z</time>
      </trkpt>
      <trkpt lat="43.59731" lon="3.72356">
        <ele>151.2</ele>
        <time>2022-08-13T07:45:44.974Z</time>
      </trkpt>
      <trkpt lat="43.59719" lon="3.72239">
        <ele>154.9</ele>
        <time>2022-08-13T07:46:39.928Z</time>
      </trkpt>
      <trkpt lat="43.5972" lon="3.72178">
        <ele>156.6</ele>
        <time>2022-08-13T07:46:55.261Z</time>
      </trkpt>
      <trkpt lat="43.59711" lon="3.72126">
        <ele>160.4</ele>
        <time>2022-08-13T07:47:23.911Z</time>
      </trkpt>
      <trkpt lat="43.5972" lon="3.72096">
        <ele>163</ele>
        <time>2022-08-13T07:47:37.276Z</time>
      </trkpt>
      <trkpt lat="43.59722" lon="3.72079">
        <ele>164.3</ele>
        <time>2022-08-13T07:47:53.969Z</time>
      </trkpt>
      <trkpt lat="43.59714" lon="3.72047">
        <ele>166</ele>
        <time>2022-08-13T07:48:07.550Z</time>
      </trkpt>
      <trkpt lat="43.59713" lon="3.72024">
        <ele>167.6</ele>
        <time>2022-08-13T07:48:13.340Z</time>
      </trkpt>
      <trkpt lat="43.59721" lon="3.7196">
        <ele>173.2</ele>
        <time>2022-08-13T07:48:58.558Z</time>
      </trkpt>
      <trkpt lat="43.59723" lon="3.71908">
        <ele>178.5</ele>
        <time>2022-08-13T07:49:48.417Z</time>
      </trkpt>
      <trkpt lat="43.5974" lon="3.71851">
        <ele>182</ele>
        <time>2022-08-13T07:50:18.942Z</time>
      </trkpt>
      <trkpt lat="43.59775" lon="3.71777">
        <ele>187.1</ele>
        <time>2022-08-13T07:51:35.284Z</time>
      </trkpt>
      <trkpt lat="43.59793" lon="3.7171">
        <ele>192.3</ele>
        <time>2022-08-13T07:51:53.241Z</time>
      </trkpt>
      <trkpt lat="43.59799" lon="3.71705">
        <ele>193</ele>
        <time>2022-08-13T07:51:55.672Z</time>
      </trkpt>
      <trkpt lat="43.59802" lon="3.71695">
        <ele>193.6</ele>
        <time>2022-08-13T07:51:58.392Z</time>
      </trkpt>
      <trkpt lat="43.598" lon="3.71693">
        <ele>193.3</ele>
        <time>2022-08-13T07:51:59.249Z</time>
      </trkpt>
      <trkpt lat="43.59775" lon="3.71699">
        <ele>190.4</ele>
        <time>2022-08-13T07:52:02.960Z</time>
      </trkpt>
      <trkpt lat="43.59692" lon="3.71703">
        <ele>173.1</ele>
        <time>2022-08-13T07:52:13.480Z</time>
      </trkpt>
      <trkpt lat="43.59412" lon="3.7174">
        <ele>149.3</ele>
        <time>2022-08-13T07:52:49.109Z</time>
      </trkpt>
      <trkpt lat="43.59395" lon="3.71732">
        <ele>150.6</ele>
        <time>2022-08-13T07:52:55.341Z</time>
      </trkpt>
      <trkpt lat="43.59382" lon="3.71712">
        <ele>151.6</ele>
        <time>2022-08-13T07:53:02.094Z</time>
      </trkpt>
      <trkpt lat="43.59348" lon="3.71714">
        <ele>152</ele>
        <time>2022-08-13T07:53:18.251Z</time>
      </trkpt>
      <trkpt lat="43.59296" lon="3.71689">
        <ele>150.7</ele>
        <time>2022-08-13T07:53:26.549Z</time>
      </trkpt>
      <trkpt lat="43.59275" lon="3.71675">
        <ele>150.1</ele>
        <time>2022-08-13T07:53:29.850Z</time>
      </trkpt>
      <trkpt lat="43.59225" lon="3.71624">
        <ele>148.4</ele>
        <time>2022-08-13T07:53:41.549Z</time>
      </trkpt>
      <trkpt lat="43.59195" lon="3.71587">
        <ele>147.8</ele>
        <time>2022-08-13T07:53:48.382Z</time>
      </trkpt>
      <trkpt lat="43.59171" lon="3.71549">
        <ele>147.9</ele>
        <time>2022-08-13T07:54:16.450Z</time>
      </trkpt>
      <trkpt lat="43.59151" lon="3.71504">
        <ele>148.7</ele>
        <time>2022-08-13T07:54:21.294Z</time>
      </trkpt>
      <trkpt lat="43.59128" lon="3.71464">
        <ele>148.5</ele>
        <time>2022-08-13T07:54:34.129Z</time>
      </trkpt>
      <trkpt lat="43.59097" lon="3.7143">
        <ele>147.5</ele>
        <time>2022-08-13T07:54:47.866Z</time>
      </trkpt>
      <trkpt lat="43.59084" lon="3.71409">
        <ele>147.3</ele>
        <time>2022-08-13T07:54:54.809Z</time>
      </trkpt>
      <trkpt lat="43.59063" lon="3.71344">
        <ele>147.2</ele>
        <time>2022-08-13T07:55:04.130Z</time>
      </trkpt>
      <trkpt lat="43.59024" lon="3.71251">
        <ele>146.9</ele>
        <time>2022-08-13T07:55:34.739Z</time>
      </trkpt>
      <trkpt lat="43.59002" lon="3.71186">
        <ele>148</ele>
        <time>2022-08-13T07:55:44.153Z</time>
      </trkpt>
      <trkpt lat="43.58986" lon="3.7115">
        <ele>146.9</ele>
        <time>2022-08-13T07:55:48.028Z</time>
      </trkpt>
      <trkpt lat="43.58968" lon="3.7114">
        <ele>145.7</ele>
        <time>2022-08-13T07:55:54.760Z</time>
      </trkpt>
      <trkpt lat="43.58887" lon="3.71124">
        <ele>139.3</ele>
        <time>2022-08-13T07:56:05.734Z</time>
      </trkpt>
      <trkpt lat="43.58883" lon="3.71115">
        <ele>139.2</ele>
        <time>2022-08-13T07:56:08.388Z</time>
      </trkpt>
      <trkpt lat="43.58852" lon="3.7113">
        <ele>135.4</ele>
        <time>2022-08-13T07:56:13.643Z</time>
      </trkpt>
      <trkpt lat="43.5874" lon="3.71173">
        <ele>124.1</ele>
        <time>2022-08-13T07:56:28.368Z</time>
      </trkpt>
      <trkpt lat="43.58678" lon="3.71204">
        <ele>120.4</ele>
        <time>2022-08-13T07:56:40.919Z</time>
      </trkpt>
      <trkpt lat="43.58627" lon="3.71219">
        <ele>119</ele>
        <time>2022-08-13T07:56:47.420Z</time>
      </trkpt>
      <trkpt lat="43.58507" lon="3.71253">
        <ele>115.3</ele>
        <time>2022-08-13T07:57:03.836Z</time>
      </trkpt>
      <trkpt lat="43.58483" lon="3.71273">
        <ele>115</ele>
        <time>2022-08-13T07:57:08.088Z</time>
      </trkpt>
      <trkpt lat="43.58477" lon="3.71299">
        <ele>114.4</ele>
        <time>2022-08-13T07:57:14.946Z</time>
      </trkpt>
      <trkpt lat="43.58469" lon="3.71833">
        <ele>113</ele>
        <time>2022-08-13T07:59:24.074Z</time>
      </trkpt>
      <trkpt lat="43.58473" lon="3.71945">
        <ele>115</ele>
        <time>2022-08-13T08:00:06.667Z</time>
      </trkpt>
      <trkpt lat="43.58494" lon="3.72075">
        <ele>118.7</ele>
        <time>2022-08-13T08:01:00.640Z</time>
      </trkpt>
      <trkpt lat="43.58516" lon="3.72282">
        <ele>122</ele>
        <time>2022-08-13T08:02:00.454Z</time>
      </trkpt>
      <trkpt lat="43.58544" lon="3.72312">
        <ele>121.3</ele>
        <time>2022-08-13T08:02:12.752Z</time>
      </trkpt>
      <trkpt lat="43.58546" lon="3.72327">
        <ele>121.1</ele>
        <time>2022-08-13T08:02:16.585Z</time>
      </trkpt>
      <trkpt lat="43.58536" lon="3.72338">
        <ele>121</ele>
        <time>2022-08-13T08:02:21.021Z</time>
      </trkpt>
      <trkpt lat="43.58521" lon="3.72344">
        <ele>121.2</ele>
        <time>2022-08-13T08:02:26.440Z</time>
      </trkpt>
      <trkpt lat="43.58514" lon="3.72365">
        <ele>120.9</ele>
        <time>2022-08-13T08:02:32.250Z</time>
      </trkpt>
      <trkpt lat="43.58508" lon="3.72398">
        <ele>120.5</ele>
        <time>2022-08-13T08:02:40.802Z</time>
      </trkpt>
      <trkpt lat="43.58499" lon="3.7242">
        <ele>119.9</ele>
        <time>2022-08-13T08:02:47.152Z</time>
      </trkpt>
      <trkpt lat="43.58457" lon="3.72459">
        <ele>119</ele>
        <time>2022-08-13T08:02:54.548Z</time>
      </trkpt>
      <trkpt lat="43.58415" lon="3.72516">
        <ele>119</ele>
        <time>2022-08-13T08:03:14.983Z</time>
      </trkpt>
      <trkpt lat="43.58416" lon="3.72523">
        <ele>119</ele>
        <time>2022-08-13T08:03:16.776Z</time>
      </trkpt>
      <trkpt lat="43.58426" lon="3.7253">
        <ele>119</ele>
        <time>2022-08-13T08:03:20.667Z</time>
      </trkpt>
      <trkpt lat="43.5844" lon="3.72514">
        <ele>119</ele>
        <time>2022-08-13T08:03:26.973Z</time>
      </trkpt>
      <trkpt lat="43.58465" lon="3.72517">
        <ele>119</ele>
        <time>2022-08-13T08:03:30.628Z</time>
      </trkpt>
      <trkpt lat="43.58517" lon="3.72569">
        <ele>115.6</ele>
        <time>2022-08-13T08:03:40.823Z</time>
      </trkpt>
      <trkpt lat="43.58518" lon="3.7259">
        <ele>114.9</ele>
        <time>2022-08-13T08:03:42.754Z</time>
      </trkpt>
      <trkpt lat="43.58501" lon="3.72624">
        <ele>113</ele>
        <time>2022-08-13T08:03:46.545Z</time>
      </trkpt>
      <trkpt lat="43.58487" lon="3.72635">
        <ele>112.8</ele>
        <time>2022-08-13T08:04:05.555Z</time>
      </trkpt>
      <trkpt lat="43.58464" lon="3.7268">
        <ele>110.7</ele>
        <time>2022-08-13T08:04:10.608Z</time>
      </trkpt>
      <trkpt lat="43.58443" lon="3.72706">
        <ele>110.3</ele>
        <time>2022-08-13T08:04:20.396Z</time>
      </trkpt>
      <trkpt lat="43.58385" lon="3.72803">
        <ele>105.5</ele>
        <time>2022-08-13T08:04:33.173Z</time>
      </trkpt>
      <trkpt lat="43.58353" lon="3.72849">
        <ele>105.4</ele>
        <time>2022-08-13T08:04:38.605Z</time>
      </trkpt>
      <trkpt lat="43.58336" lon="3.72883">
        <ele>105</ele>
        <time>2022-08-13T08:04:43.248Z</time>
      </trkpt>
      <trkpt lat="43.58333" lon="3.7291">
        <ele>104.3</ele>
        <time>2022-08-13T08:04:50.113Z</time>
      </trkpt>
      <trkpt lat="43.58328" lon="3.72919">
        <ele>104.1</ele>
        <time>2022-08-13T08:04:52.964Z</time>
      </trkpt>
      <trkpt lat="43.58321" lon="3.72948">
        <ele>103.2</ele>
        <time>2022-08-13T08:04:56.034Z</time>
      </trkpt>
      <trkpt lat="43.58299" lon="3.72973">
        <ele>102.7</ele>
        <time>2022-08-13T08:05:00.380Z</time>
      </trkpt>
      <trkpt lat="43.58292" lon="3.72986">
        <ele>101</ele>
        <time>2022-08-13T08:05:04.452Z</time>
      </trkpt>
      <trkpt lat="43.58292" lon="3.73">
        <ele>99.5</ele>
        <time>2022-08-13T08:05:07.970Z</time>
      </trkpt>
      <trkpt lat="43.58283" lon="3.73024">
        <ele>97.3</ele>
        <time>2022-08-13T08:05:10.450Z</time>
      </trkpt>
      <trkpt lat="43.58268" lon="3.73038">
        <ele>97</ele>
        <time>2022-08-13T08:05:16.733Z</time>
      </trkpt>
      <trkpt lat="43.58253" lon="3.73062">
        <ele>96.3</ele>
        <time>2022-08-13T08:05:24.700Z</time>
      </trkpt>
      <trkpt lat="43.58235" lon="3.73108">
        <ele>94.3</ele>
        <time>2022-08-13T08:05:31.025Z</time>
      </trkpt>
      <trkpt lat="43.58239" lon="3.73157">
        <ele>90.5</ele>
        <time>2022-08-13T08:05:35.549Z</time>
      </trkpt>
      <trkpt lat="43.58248" lon="3.73193">
        <ele>85.5</ele>
        <time>2022-08-13T08:05:39.044Z</time>
      </trkpt>
      <trkpt lat="43.58244" lon="3.73222">
        <ele>83.9</ele>
        <time>2022-08-13T08:05:41.966Z</time>
      </trkpt>
      <trkpt lat="43.58249" lon="3.73247">
        <ele>83</ele>
        <time>2022-08-13T08:05:44.394Z</time>
      </trkpt>
      <trkpt lat="43.5825" lon="3.7326">
        <ele>84.8</ele>
        <time>2022-08-13T08:05:47.679Z</time>
      </trkpt>
      <trkpt lat="43.58246" lon="3.73274">
        <ele>86.6</ele>
        <time>2022-08-13T08:05:51.462Z</time>
      </trkpt>
      <trkpt lat="43.58201" lon="3.73378">
        <ele>88.9</ele>
        <time>2022-08-13T08:06:08.987Z</time>
      </trkpt>
      <trkpt lat="43.58218" lon="3.734">
        <ele>86.6</ele>
        <time>2022-08-13T08:06:17.072Z</time>
      </trkpt>
      <trkpt lat="43.58229" lon="3.73405">
        <ele>86.9</ele>
        <time>2022-08-13T08:06:26.294Z</time>
      </trkpt>
      <trkpt lat="43.58244" lon="3.73438">
        <ele>83</ele>
        <time>2022-08-13T08:06:29.869Z</time>
      </trkpt>
      <trkpt lat="43.58261" lon="3.73461">
        <ele>81.3</ele>
        <time>2022-08-13T08:06:48.454Z</time>
      </trkpt>
      <trkpt lat="43.58262" lon="3.73499">
        <ele>75.7</ele>
        <time>2022-08-13T08:06:51.943Z</time>
      </trkpt>
      <trkpt lat="43.58285" lon="3.73532">
        <ele>76.5</ele>
        <time>2022-08-13T08:07:07.843Z</time>
      </trkpt>
      <trkpt lat="43.58289" lon="3.73555">
        <ele>75.7</ele>
        <time>2022-08-13T08:07:13.789Z</time>
      </trkpt>
      <trkpt lat="43.58289" lon="3.73586">
        <ele>74.4</ele>
        <time>2022-08-13T08:07:16.920Z</time>
      </trkpt>
      <trkpt lat="43.58275" lon="3.73635">
        <ele>73.7</ele>
        <time>2022-08-13T08:07:23.306Z</time>
      </trkpt>
      <trkpt lat="43.58266" lon="3.73655">
        <ele>73.5</ele>
        <time>2022-08-13T08:07:25.466Z</time>
      </trkpt>
      <trkpt lat="43.58258" lon="3.73681">
        <ele>71.9</ele>
        <time>2022-08-13T08:07:28.211Z</time>
      </trkpt>
      <trkpt lat="43.58245" lon="3.737">
        <ele>70.1</ele>
        <time>2022-08-13T08:07:30.609Z</time>
      </trkpt>
      <trkpt lat="43.58236" lon="3.73707">
        <ele>70</ele>
        <time>2022-08-13T08:07:34.193Z</time>
      </trkpt>
      <trkpt lat="43.58173" lon="3.73743">
        <ele>68.4</ele>
        <time>2022-08-13T08:07:42.830Z</time>
      </trkpt>
      <trkpt lat="43.58134" lon="3.73759">
        <ele>68.6</ele>
        <time>2022-08-13T08:07:56.947Z</time>
      </trkpt>
      <trkpt lat="43.58082" lon="3.7377">
        <ele>67.7</ele>
        <time>2022-08-13T08:08:06.504Z</time>
      </trkpt>
      <trkpt lat="43.58034" lon="3.73819">
        <ele>65.2</ele>
        <time>2022-08-13T08:08:36.388Z</time>
      </trkpt>
      <trkpt lat="43.58021" lon="3.73841">
        <ele>65.8</ele>
        <time>2022-08-13T08:08:54.461Z</time>
      </trkpt>
      <trkpt lat="43.57978" lon="3.73945">
        <ele>63.3</ele>
        <time>2022-08-13T08:09:09.497Z</time>
      </trkpt>
      <trkpt lat="43.5796" lon="3.73973">
        <ele>63.3</ele>
        <time>2022-08-13T08:09:18.907Z</time>
      </trkpt>
      <trkpt lat="43.57947" lon="3.74005">
        <ele>62.1</ele>
        <time>2022-08-13T08:09:28.129Z</time>
      </trkpt>
      <trkpt lat="43.57929" lon="3.7403">
        <ele>61.1</ele>
        <time>2022-08-13T08:09:36.988Z</time>
      </trkpt>
      <trkpt lat="43.57888" lon="3.74027">
        <ele>59.1</ele>
        <time>2022-08-13T08:09:42.189Z</time>
      </trkpt>
      <trkpt lat="43.57867" lon="3.74031">
        <ele>59.8</ele>
        <time>2022-08-13T08:09:49.545Z</time>
      </trkpt>
      <trkpt lat="43.57843" lon="3.74044">
        <ele>60.5</ele>
        <time>2022-08-13T08:09:58.490Z</time>
      </trkpt>
      <trkpt lat="43.57819" lon="3.74066">
        <ele>59.7</ele>
        <time>2022-08-13T08:10:08.487Z</time>
      </trkpt>
      <trkpt lat="43.57784" lon="3.7411">
        <ele>57.4</ele>
        <time>2022-08-13T08:10:15.228Z</time>
      </trkpt>
      <trkpt lat="43.57768" lon="3.74155">
        <ele>58.2</ele>
        <time>2022-08-13T08:10:19.847Z</time>
      </trkpt>
      <trkpt lat="43.57766" lon="3.7421">
        <ele>57</ele>
        <time>2022-08-13T08:10:24.901Z</time>
      </trkpt>
      <trkpt lat="43.5777" lon="3.74239">
        <ele>56.6</ele>
        <time>2022-08-13T08:10:27.824Z</time>
      </trkpt>
      <trkpt lat="43.57783" lon="3.74276">
        <ele>57.8</ele>
        <time>2022-08-13T08:10:32.438Z</time>
      </trkpt>
      <trkpt lat="43.57814" lon="3.74335">
        <ele>62.1</ele>
        <time>2022-08-13T08:11:00.492Z</time>
      </trkpt>
      <trkpt lat="43.57839" lon="3.74378">
        <ele>64.6</ele>
        <time>2022-08-13T08:11:48.252Z</time>
      </trkpt>
      <trkpt lat="43.57874" lon="3.74425">
        <ele>66.7</ele>
        <time>2022-08-13T08:11:56.970Z</time>
      </trkpt>
      <trkpt lat="43.57915" lon="3.74518">
        <ele>63.5</ele>
        <time>2022-08-13T08:12:08.658Z</time>
      </trkpt>
      <trkpt lat="43.57934" lon="3.74597">
        <ele>60.1</ele>
        <time>2022-08-13T08:12:19.937Z</time>
      </trkpt>
      <trkpt lat="43.5793" lon="3.74609">
        <ele>59.1</ele>
        <time>2022-08-13T08:12:23.257Z</time>
      </trkpt>
      <trkpt lat="43.57923" lon="3.746">
        <ele>58.9</ele>
        <time>2022-08-13T08:12:26.576Z</time>
      </trkpt>
      <trkpt lat="43.57903" lon="3.74547">
        <ele>60.3</ele>
        <time>2022-08-13T08:12:34.077Z</time>
      </trkpt>
      <trkpt lat="43.57835" lon="3.74418">
        <ele>63.1</ele>
        <time>2022-08-13T08:13:26.687Z</time>
      </trkpt>
      <trkpt lat="43.5782" lon="3.7442">
        <ele>61.4</ele>
        <time>2022-08-13T08:13:28.595Z</time>
      </trkpt>
      <trkpt lat="43.57562" lon="3.74797">
        <ele>48.3</ele>
        <time>2022-08-13T08:14:23.277Z</time>
      </trkpt>
      <trkpt lat="43.57558" lon="3.74822">
        <ele>48</ele>
        <time>2022-08-13T08:14:29.712Z</time>
      </trkpt>
      <trkpt lat="43.57621" lon="3.75024">
        <ele>45</ele>
        <time>2022-08-13T08:15:01.057Z</time>
      </trkpt>
      <trkpt lat="43.57689" lon="3.7518">
        <ele>43.8</ele>
        <time>2022-08-13T08:15:28.776Z</time>
      </trkpt>
      <trkpt lat="43.57712" lon="3.75231">
        <ele>43.7</ele>
        <time>2022-08-13T08:15:43.877Z</time>
      </trkpt>
      <trkpt lat="43.57761" lon="3.75331">
        <ele>44.4</ele>
        <time>2022-08-13T08:16:01.334Z</time>
      </trkpt>
      <trkpt lat="43.57825" lon="3.75401">
        <ele>45.5</ele>
        <time>2022-08-13T08:16:37.861Z</time>
      </trkpt>
      <trkpt lat="43.57903" lon="3.75476">
        <ele>46.5</ele>
        <time>2022-08-13T08:17:24.256Z</time>
      </trkpt>
      <trkpt lat="43.57916" lon="3.75451">
        <ele>47.8</ele>
        <time>2022-08-13T08:17:31.991Z</time>
      </trkpt>
    </trkseg>
  </trk>
</gpx>